createdAt,value
2023-09-05T00:00:16.281Z,1.27
2023-09-05T00:02:43.241Z,1.23
2023-09-05T00:05:10.392Z,1.40
2023-09-05T00:07:37.480Z,1.50
2023-09-05T00:10:09.218Z,1.43
2023-09-05T00:12:36.058Z,1.23
2023-09-05T00:15:03.813Z,1.80
2023-09-05T00:17:31.405Z,1.23
2023-09-05T00:19:58.277Z,1.60
2023-09-05T00:22:25.160Z,1.50
2023-09-05T00:24:52.031Z,1.33
2023-09-05T00:27:18.921Z,1.33
2023-09-05T00:29:45.811Z,1.13
2023-09-05T00:32:12.598Z,1.00
2023-09-05T00:34:39.610Z,1.43
2023-09-05T00:37:07.770Z,1.40
2023-09-05T00:39:34.968Z,1.60
2023-09-05T00:42:03.164Z,1.90
2023-09-05T00:44:30.038Z,1.27
2023-09-05T00:46:57.524Z,1.53
2023-09-05T00:49:28.961Z,1.43
2023-09-05T00:52:00.262Z,1.40
2023-09-05T00:54:27.485Z,1.20
2023-09-05T00:56:54.332Z,1.30
2023-09-05T00:59:21.948Z,1.40
2023-09-05T01:01:49.299Z,1.20
2023-09-05T01:04:16.242Z,1.47
2023-09-05T01:07:01.310Z,1.60
2023-09-05T01:09:46.538Z,1.40
2023-09-05T01:12:13.341Z,1.37
2023-09-05T01:14:40.275Z,1.20
2023-09-05T01:17:07.089Z,1.30
2023-09-05T01:19:37.467Z,1.53
2023-09-05T01:22:26.004Z,1.60
2023-09-05T01:24:52.901Z,1.27
2023-09-05T01:27:20.596Z,1.50
2023-09-05T01:29:47.591Z,1.60
2023-09-05T01:32:14.915Z,1.70
2023-09-05T01:34:42.276Z,1.53
2023-09-05T01:37:11.730Z,1.43
2023-09-05T01:39:39.031Z,1.47
2023-09-05T01:42:06.244Z,1.53
2023-09-05T01:44:37.350Z,1.10
2023-09-05T01:47:04.653Z,1.70
2023-09-05T01:49:31.457Z,1.30
2023-09-05T01:51:58.270Z,1.10
2023-09-05T01:54:25.727Z,1.20
2023-09-05T01:56:52.471Z,0.90
2023-09-05T01:59:22.969Z,0.70
2023-09-05T02:01:50.322Z,1.27
2023-09-05T02:04:17.355Z,1.00
2023-09-05T02:06:44.193Z,1.10
2023-09-05T02:09:10.996Z,0.90
2023-09-05T02:11:37.784Z,0.90
2023-09-05T02:14:04.591Z,0.90
2023-09-05T02:16:32.163Z,0.70
2023-09-05T02:18:59.058Z,0.30
2023-09-05T02:21:25.960Z,0.50
2023-09-05T02:23:53.114Z,0.57
2023-09-05T02:26:19.914Z,0.60
2023-09-05T02:28:46.878Z,0.60
2023-09-05T02:31:13.808Z,0.70
2023-09-05T02:33:40.649Z,0.70
2023-09-05T02:36:12.540Z,0.70
2023-09-05T02:38:39.332Z,0.57
2023-09-05T02:41:06.152Z,0.50
2023-09-05T02:43:33.609Z,0.50
2023-09-05T02:46:00.397Z,0.67
2023-09-05T02:48:27.175Z,0.60
2023-09-05T02:51:04.496Z,0.60
2023-09-05T02:53:31.320Z,0.50
2023-09-05T02:55:58.334Z,0.80
2023-09-05T02:58:29.069Z,0.50
2023-09-05T03:01:07.401Z,0.80
2023-09-05T03:03:34.333Z,0.57
2023-09-05T03:06:10.916Z,0.60
2023-09-05T03:08:38.348Z,0.77
2023-09-05T03:11:05.273Z,1.00
2023-09-05T03:13:32.059Z,1.00
2023-09-05T03:15:58.892Z,0.73
2023-09-05T03:18:28.494Z,1.30
2023-09-05T03:20:55.348Z,1.10
2023-09-05T03:23:23.572Z,0.70
2023-09-05T03:25:50.803Z,0.70
2023-09-05T03:28:17.787Z,0.60
2023-09-05T03:30:44.570Z,0.77
2023-09-05T03:33:11.422Z,0.60
2023-09-05T03:35:38.654Z,0.60
2023-09-05T03:38:08.058Z,0.60
2023-09-05T03:40:35.565Z,0.60
2023-09-05T03:43:02.533Z,0.60
2023-09-05T03:45:31.789Z,0.50
2023-09-05T03:48:01.502Z,0.60
2023-09-05T03:50:29.089Z,0.67
2023-09-05T03:52:55.925Z,0.90
2023-09-05T03:55:23.097Z,0.90
2023-09-05T03:57:50.099Z,0.80
2023-09-05T04:00:17.038Z,0.70
2023-09-05T04:02:43.899Z,1.00
2023-09-05T04:05:12.308Z,0.80
2023-09-05T04:07:41.846Z,0.67
2023-09-05T04:10:10.009Z,0.60
2023-09-05T04:12:38.405Z,0.50
2023-09-05T04:15:05.958Z,0.93
2023-09-05T04:17:33.148Z,0.67
2023-09-05T04:20:00.170Z,0.90
2023-09-05T04:22:29.857Z,1.03
2023-09-05T04:24:56.722Z,1.47
2023-09-05T04:27:24.860Z,1.10
2023-09-05T04:29:52.802Z,1.30
2023-09-05T04:32:30.090Z,1.13
2023-09-05T04:34:58.100Z,0.97
2023-09-05T04:37:25.240Z,0.90
2023-09-05T04:39:52.391Z,0.87
2023-09-05T04:42:19.225Z,1.20
2023-09-05T04:44:46.255Z,0.80
2023-09-05T04:47:22.672Z,1.10
2023-09-05T04:49:53.901Z,1.10
2023-09-05T04:52:21.486Z,1.10
2023-09-05T04:54:48.364Z,1.20
2023-09-05T04:57:15.457Z,1.00
2023-09-05T04:59:45.082Z,1.10
2023-09-05T05:02:12.307Z,1.00
2023-09-05T05:04:39.078Z,0.70
2023-09-05T05:07:05.841Z,0.70
2023-09-05T05:09:32.661Z,1.00
2023-09-05T05:12:00.398Z,1.20
2023-09-05T05:14:27.263Z,1.07
2023-09-05T05:16:55.224Z,1.30
2023-09-05T05:19:22.829Z,1.07
2023-09-05T05:21:50.245Z,1.00
2023-09-05T05:24:17.028Z,0.83
2023-09-05T05:26:44.316Z,1.00
2023-09-05T05:29:11.192Z,1.10
2023-09-05T05:31:38.785Z,0.70
2023-09-05T05:34:05.634Z,1.00
2023-09-05T05:36:32.402Z,0.70
2023-09-05T05:39:02.745Z,0.87
2023-09-05T05:41:29.571Z,0.90
2023-09-05T05:43:56.767Z,0.93
2023-09-05T05:46:23.812Z,1.03
2023-09-05T05:48:52.860Z,0.90
2023-09-05T05:51:20.082Z,0.90
2023-09-05T05:53:47.929Z,1.57
2023-09-05T05:56:14.753Z,1.60
2023-09-05T05:58:41.578Z,1.13
2023-09-05T06:01:09.124Z,1.40
2023-09-05T06:03:36.680Z,1.07
2023-09-05T06:06:04.593Z,1.00
2023-09-05T06:08:31.960Z,1.10
2023-09-05T06:10:58.943Z,1.50
2023-09-05T06:13:25.776Z,1.40
2023-09-05T06:15:53.193Z,1.10
2023-09-05T06:18:20.450Z,1.20
2023-09-05T06:20:47.294Z,1.00
2023-09-05T06:23:14.244Z,1.00
2023-09-05T06:25:41.128Z,1.57
2023-09-05T06:28:07.976Z,1.40
2023-09-05T06:30:34.830Z,1.23
2023-09-05T06:33:01.931Z,1.20
2023-09-05T06:35:28.760Z,1.17
2023-09-05T06:37:57.215Z,1.30
2023-09-05T06:40:24.901Z,1.50
2023-09-05T06:42:55.074Z,1.40
2023-09-05T06:45:22.349Z,1.20
2023-09-05T06:47:49.251Z,1.37
2023-09-05T06:50:16.245Z,2.17
2023-09-05T06:52:43.086Z,2.20
2023-09-05T06:55:10.570Z,1.90
2023-09-05T06:57:37.400Z,1.83
2023-09-05T07:00:04.704Z,1.40
2023-09-05T07:02:31.696Z,1.97
2023-09-05T07:04:58.666Z,1.60
2023-09-05T07:07:26.682Z,1.50
2023-09-05T07:09:54.552Z,1.60
2023-09-05T07:12:21.675Z,1.77
2023-09-05T07:14:49.730Z,1.30
2023-09-05T07:17:16.516Z,1.27
2023-09-05T07:19:43.322Z,1.27
2023-09-05T07:22:10.224Z,1.90
2023-09-05T07:24:38.150Z,1.70
2023-09-05T07:27:05.720Z,2.80
2023-09-05T07:29:34.571Z,2.50
2023-09-05T07:32:02.824Z,2.63
2023-09-05T07:34:30.064Z,2.00
2023-09-05T07:36:57.904Z,2.23
2023-09-05T07:39:25.903Z,2.10
2023-09-05T07:41:52.954Z,1.97
2023-09-05T07:44:20.907Z,2.40
2023-09-05T07:46:47.925Z,1.97
2023-09-05T07:49:16.965Z,2.27
2023-09-05T07:51:44.094Z,3.03
2023-09-05T07:54:17.191Z,2.00
2023-09-05T07:56:44.072Z,2.43
2023-09-05T07:59:10.933Z,2.23
2023-09-05T08:01:38.468Z,2.07
2023-09-05T08:04:06.743Z,2.60
2023-09-05T08:06:33.728Z,2.13
2023-09-05T08:09:00.559Z,2.40
2023-09-05T08:11:27.387Z,2.07
2023-09-05T08:13:55.217Z,2.10
2023-09-05T08:16:23.746Z,2.40
2023-09-05T08:18:50.737Z,1.80
2023-09-05T08:21:18.330Z,2.20
2023-09-05T08:23:45.719Z,2.30
2023-09-05T08:26:13.100Z,2.00
2023-09-05T08:28:45.085Z,2.50
2023-09-05T08:33:41.780Z,2.23
2023-09-05T08:36:09.988Z,1.70
2023-09-05T08:38:40.557Z,1.83
2023-09-05T08:41:11.274Z,1.63
2023-09-05T08:43:38.031Z,2.00
2023-09-05T08:46:04.967Z,2.00
2023-09-05T08:51:05.577Z,2.40
2023-09-05T08:53:35.388Z,2.23
2023-09-05T08:56:02.557Z,2.20
2023-09-05T08:58:29.434Z,1.93
2023-09-05T09:00:57.145Z,2.47
2023-09-05T09:03:24.197Z,2.10
2023-09-05T09:05:51.309Z,2.17
2023-09-05T09:08:20.151Z,2.10
2023-09-05T09:11:06.277Z,2.20
2023-09-05T09:13:33.142Z,2.30
2023-09-05T09:16:03.675Z,1.90
2023-09-05T09:18:33.324Z,2.10
2023-09-05T09:21:04.457Z,2.10
2023-09-05T09:23:34.396Z,1.77
2023-09-05T09:26:01.776Z,2.20
2023-09-05T09:28:35.424Z,2.00
2023-09-05T09:31:05.736Z,1.83
2023-09-05T09:33:33.678Z,1.73
2023-09-05T09:36:04.730Z,1.80
2023-09-05T09:38:31.663Z,2.00
2023-09-05T09:41:03.878Z,2.13
2023-09-05T09:43:31.358Z,1.93
2023-09-05T09:46:02.044Z,1.63
2023-09-05T09:48:30.043Z,2.03
2023-09-05T09:50:57.813Z,1.90
2023-09-05T09:53:31.662Z,2.03
2023-09-05T09:56:01.008Z,1.60
2023-09-05T09:58:28.297Z,1.87
2023-09-05T10:00:57.173Z,1.40
2023-09-05T10:03:26.562Z,1.87
2023-09-05T10:05:53.740Z,1.70
2023-09-05T10:08:21.806Z,2.00
2023-09-05T10:10:48.999Z,1.63
2023-09-05T10:13:15.822Z,1.57
2023-09-05T10:15:42.756Z,1.80
2023-09-05T10:18:10.586Z,2.10
2023-09-05T10:20:41.689Z,2.73
2023-09-05T10:23:09.034Z,1.53
2023-09-05T10:25:37.928Z,1.80
2023-09-05T10:28:05.762Z,1.80
2023-09-05T10:30:43.124Z,2.10
2023-09-05T10:33:13.501Z,1.53
2023-09-05T10:35:46.902Z,1.70
2023-09-05T10:38:15.437Z,1.70
2023-09-05T10:40:42.343Z,1.73
2023-09-05T10:43:10.321Z,1.70
2023-09-05T10:45:38.583Z,1.67
2023-09-05T10:48:18.494Z,2.20
2023-09-05T10:51:04.978Z,1.40
2023-09-05T10:53:31.849Z,1.60
2023-09-05T10:55:58.707Z,1.60
2023-09-05T10:58:42.167Z,1.20
2023-09-05T11:01:31.882Z,1.73
2023-09-05T11:04:08.672Z,1.53
2023-09-05T11:06:36.113Z,1.20
2023-09-05T11:09:08.340Z,1.83
2023-09-05T11:11:38.862Z,1.70
2023-09-05T11:14:06.170Z,1.83
2023-09-05T11:16:48.661Z,1.77
2023-09-05T11:19:31.659Z,1.60
2023-09-05T11:22:11.723Z,1.90
2023-09-05T11:24:49.207Z,1.63
2023-09-05T11:27:30.867Z,1.80
2023-09-05T11:30:02.213Z,1.73
2023-09-05T11:32:32.883Z,1.90
2023-09-05T11:35:00.028Z,1.70
2023-09-05T11:37:29.688Z,1.73
2023-09-05T11:39:56.570Z,1.70
2023-09-05T11:42:33.118Z,1.90
2023-09-05T11:44:59.976Z,1.70
2023-09-05T11:47:27.644Z,1.40
2023-09-05T11:49:54.834Z,1.40
2023-09-05T11:52:23.405Z,1.50
2023-09-05T11:54:50.972Z,1.87
2023-09-05T11:57:21.689Z,1.67
2023-09-05T11:59:48.964Z,1.40
2023-09-05T12:02:17.223Z,1.30
2023-09-05T12:04:44.149Z,1.60
2023-09-05T12:07:10.969Z,1.80
2023-09-05T12:09:38.985Z,1.43
2023-09-05T12:12:16.232Z,1.47
2023-09-05T12:14:54.167Z,1.50
2023-09-05T12:17:22.286Z,1.33
2023-09-05T12:19:49.987Z,1.50
2023-09-05T12:22:29.527Z,1.57
2023-09-05T12:25:10.322Z,1.70
2023-09-05T12:27:37.916Z,1.13
2023-09-05T12:30:05.127Z,1.90
2023-09-05T12:32:32.023Z,1.50
2023-09-05T12:34:58.873Z,2.30
2023-09-05T12:37:25.688Z,1.93
2023-09-05T12:39:52.762Z,1.20
2023-09-05T12:42:19.824Z,1.73
2023-09-05T12:44:46.600Z,1.27
2023-09-05T12:47:13.413Z,1.33
2023-09-05T12:52:10.508Z,1.30
2023-09-05T12:54:37.384Z,1.87
2023-09-05T12:57:05.990Z,1.37
2023-09-05T12:59:32.896Z,1.93
2023-09-05T13:01:59.800Z,1.60
2023-09-05T13:04:26.669Z,1.70
2023-09-05T13:06:56.280Z,2.10
2023-09-05T13:09:24.169Z,1.93
2023-09-05T13:11:52.138Z,1.60
2023-09-05T13:14:18.959Z,1.50
2023-09-05T13:16:45.885Z,1.70
2023-09-05T13:19:13.484Z,1.93
2023-09-05T13:21:40.370Z,1.53
2023-09-05T13:24:08.060Z,1.50
2023-09-05T13:26:35.228Z,1.30
2023-09-05T13:29:02.498Z,1.60
2023-09-05T13:31:30.243Z,1.70
2023-09-05T13:33:57.237Z,1.73
2023-09-05T13:36:24.399Z,1.43
2023-09-05T13:38:51.367Z,1.60
2023-09-05T13:41:18.458Z,2.00
2023-09-05T13:43:45.314Z,1.73
2023-09-05T13:46:12.220Z,1.80
2023-09-05T13:48:39.069Z,1.40
2023-09-05T13:51:05.870Z,1.43
2023-09-05T13:53:32.831Z,1.90
2023-09-05T13:55:59.665Z,1.37
2023-09-05T13:58:26.685Z,1.80
2023-09-05T14:00:53.625Z,1.30
2023-09-05T14:03:22.477Z,1.23
2023-09-05T14:05:49.705Z,1.43
2023-09-05T14:08:16.473Z,1.50
2023-09-05T14:10:44.160Z,1.67
2023-09-05T14:13:11.010Z,1.90
2023-09-05T14:15:39.207Z,1.80
2023-09-05T14:18:06.293Z,1.93
2023-09-05T14:20:33.128Z,1.63
2023-09-05T14:22:59.979Z,1.80
2023-09-05T14:25:27.004Z,2.17
2023-09-05T14:27:53.891Z,1.63
2023-09-05T14:30:20.675Z,1.70
2023-09-05T14:32:47.493Z,2.27
2023-09-05T14:35:14.293Z,1.83
2023-09-05T14:37:41.130Z,2.20
2023-09-05T14:40:08.948Z,1.87
2023-09-05T14:42:37.839Z,2.10
2023-09-05T14:45:09.060Z,2.00
2023-09-05T14:47:37.085Z,2.23
2023-09-05T14:50:04.219Z,2.10
2023-09-05T14:52:33.300Z,1.80
2023-09-05T14:55:00.425Z,1.90
2023-09-05T14:57:27.430Z,1.60
2023-09-05T14:59:54.634Z,2.10
2023-09-05T15:02:21.497Z,2.00
2023-09-05T15:04:48.332Z,1.50
2023-09-05T15:07:15.155Z,2.70
2023-09-05T15:09:42.437Z,1.63
2023-09-05T15:12:09.683Z,2.20
2023-09-05T15:14:39.775Z,2.60
2023-09-05T15:17:06.639Z,2.00
2023-09-05T15:19:33.696Z,2.20
2023-09-05T15:22:00.747Z,2.30
2023-09-05T15:24:27.665Z,2.47
2023-09-05T15:26:55.394Z,2.87
2023-09-05T15:29:22.220Z,1.70
2023-09-05T15:31:49.136Z,2.30
2023-09-05T15:34:16.493Z,2.23
2023-09-05T15:36:44.087Z,1.93
2023-09-05T15:39:11.030Z,2.30
2023-09-05T15:41:37.932Z,2.17
2023-09-05T15:44:04.971Z,1.97
2023-09-05T15:46:34.571Z,2.30
2023-09-05T15:49:01.438Z,2.00
2023-09-05T15:51:28.520Z,2.50
2023-09-05T15:53:55.520Z,2.80
2023-09-05T15:56:23.048Z,2.40
2023-09-05T15:58:49.979Z,2.70
2023-09-05T16:01:16.913Z,2.20
2023-09-05T16:03:45.785Z,1.70
2023-09-05T16:06:12.844Z,3.00
2023-09-05T16:08:39.689Z,2.27
2023-09-05T16:11:10.386Z,2.53
2023-09-05T16:13:37.813Z,2.53
2023-09-05T16:16:04.937Z,2.73
2023-09-05T16:18:32.614Z,2.97
2023-09-05T16:20:59.837Z,2.90
2023-09-05T16:23:26.809Z,2.23
2023-09-05T16:25:53.736Z,2.57
2023-09-05T16:28:20.575Z,2.30
2023-09-05T16:30:47.491Z,2.73
2023-09-05T16:33:14.529Z,1.93
2023-09-05T16:35:41.410Z,2.77
2023-09-05T16:38:08.230Z,2.00
2023-09-05T16:40:37.141Z,2.13
2023-09-05T16:43:04.093Z,2.27
2023-09-05T16:45:31.084Z,2.00
2023-09-05T16:47:58.032Z,2.07
2023-09-05T16:50:26.520Z,2.23
2023-09-05T16:52:53.368Z,2.67
2023-09-05T16:55:20.387Z,2.97
2023-09-05T16:57:47.288Z,2.53
2023-09-05T17:00:15.230Z,2.40
2023-09-05T17:02:43.858Z,2.10
2023-09-05T17:05:11.165Z,2.60
2023-09-05T17:07:38.209Z,1.70
2023-09-05T17:10:05.482Z,2.60
2023-09-05T17:12:32.416Z,2.47
2023-09-05T17:14:59.213Z,2.10
2023-09-05T17:17:26.071Z,2.07
2023-09-05T17:19:52.978Z,2.13
2023-09-05T17:22:20.506Z,1.50
2023-09-05T17:24:48.156Z,1.90
2023-09-05T17:27:15.121Z,1.60
2023-09-05T17:29:41.901Z,1.80
2023-09-05T17:32:08.686Z,1.40
2023-09-05T17:34:36.472Z,1.43
2023-09-05T17:37:04.382Z,1.43
2023-09-05T17:39:31.670Z,1.63
2023-09-05T17:41:59.612Z,1.40
2023-09-05T17:44:29.514Z,1.23
2023-09-05T17:46:56.452Z,1.60
2023-09-05T17:49:23.380Z,1.67
2023-09-05T17:51:50.892Z,1.37
2023-09-05T17:54:20.825Z,1.40
2023-09-05T17:56:48.114Z,1.90
2023-09-05T17:59:15.045Z,1.37
2023-09-05T18:01:42.006Z,1.60
2023-09-05T18:04:10.366Z,1.70
2023-09-05T18:06:39.011Z,1.80
2023-09-05T18:09:06.497Z,1.73
2023-09-05T18:11:33.270Z,1.63
2023-09-05T18:14:00.093Z,2.00
2023-09-05T18:16:26.885Z,1.97
2023-09-05T18:18:53.867Z,1.70
2023-09-05T18:21:20.835Z,1.70
2023-09-05T18:23:47.629Z,1.50
2023-09-05T18:26:14.980Z,1.57
2023-09-05T18:28:41.926Z,1.60
2023-09-05T18:31:10.000Z,1.50
2023-09-05T18:33:37.665Z,1.50
2023-09-05T18:36:05.614Z,1.60
2023-09-05T18:38:32.701Z,1.60
2023-09-05T18:41:02.627Z,1.40
2023-09-05T18:43:31.634Z,1.63
2023-09-05T18:45:58.653Z,1.50
2023-09-05T18:48:26.732Z,1.70
2023-09-05T18:50:53.925Z,1.50
2023-09-05T18:53:20.915Z,1.90
2023-09-05T18:55:49.345Z,1.67
2023-09-05T18:58:16.199Z,2.13
2023-09-05T19:00:43.500Z,1.57
2023-09-05T19:03:10.615Z,1.63
2023-09-05T19:05:38.267Z,1.23
2023-09-05T19:08:05.701Z,2.57
2023-09-05T19:10:32.484Z,2.20
2023-09-05T19:12:59.958Z,1.83
2023-09-05T19:15:28.499Z,1.50
2023-09-05T19:17:55.972Z,1.80
2023-09-05T19:20:22.853Z,1.63
2023-09-05T19:22:50.800Z,1.90
2023-09-05T19:25:17.666Z,1.53
2023-09-05T19:27:45.153Z,1.60
2023-09-05T19:30:13.423Z,1.57
2023-09-05T19:32:40.578Z,1.60
2023-09-05T19:35:11.641Z,1.80
2023-09-05T19:37:38.513Z,1.77
2023-09-05T19:40:06.536Z,1.77
2023-09-05T19:42:34.953Z,1.80
2023-09-05T19:45:01.904Z,1.60
2023-09-05T19:47:31.919Z,1.40
2023-09-05T19:49:58.735Z,1.30
2023-09-05T19:52:28.938Z,2.00
2023-09-05T19:54:56.972Z,2.10
2023-09-05T19:57:24.053Z,1.83
2023-09-05T19:59:52.756Z,1.97
2023-09-05T20:02:21.524Z,2.00
2023-09-05T20:04:48.334Z,1.57
2023-09-05T20:07:15.186Z,1.63
2023-09-05T20:09:42.159Z,2.20
2023-09-05T20:12:09.430Z,2.07
2023-09-05T20:14:36.205Z,2.40
2023-09-05T20:17:03.532Z,2.00
2023-09-05T20:19:30.403Z,2.40
2023-09-05T20:21:58.033Z,1.93
2023-09-05T20:24:24.992Z,2.00
2023-09-05T20:26:51.882Z,1.70
2023-09-05T20:29:19.399Z,2.20
2023-09-05T20:31:46.955Z,2.67
2023-09-05T20:34:13.993Z,2.00
2023-09-05T20:36:41.722Z,2.00
2023-09-05T20:39:08.732Z,1.60
2023-09-05T20:41:35.620Z,2.10
2023-09-05T20:44:02.760Z,1.97
2023-09-05T20:46:29.672Z,2.20
2023-09-05T20:48:56.612Z,1.40
2023-09-05T20:51:24.018Z,1.70
2023-09-05T20:53:51.143Z,1.70
2023-09-05T20:56:18.002Z,1.90
2023-09-05T20:58:44.855Z,2.10
2023-09-05T21:01:14.884Z,1.80
2023-09-05T21:03:41.910Z,1.60
2023-09-05T21:06:12.541Z,1.57
2023-09-05T21:08:41.398Z,1.97
2023-09-05T21:11:08.224Z,2.00
2023-09-05T21:13:35.025Z,1.83
2023-09-05T21:16:05.432Z,1.60
2023-09-05T21:18:32.431Z,1.50
2023-09-05T21:20:59.346Z,2.10
2023-09-05T21:23:26.394Z,1.60
2023-09-05T21:25:53.249Z,2.03
2023-09-05T21:28:19.997Z,1.60
2023-09-05T21:30:47.384Z,2.00
2023-09-05T21:33:14.244Z,1.83
2023-09-05T21:35:41.114Z,1.77
2023-09-05T21:38:07.979Z,2.10
2023-09-05T21:40:34.811Z,2.27
2023-09-05T21:43:01.952Z,1.60
2023-09-05T21:45:28.818Z,1.63
2023-09-05T21:47:55.702Z,2.40
2023-09-05T21:50:22.464Z,1.90
2023-09-05T21:52:49.254Z,1.80
2023-09-05T21:55:16.048Z,1.93
2023-09-05T21:57:42.920Z,2.10
2023-09-05T22:00:13.084Z,1.70
2023-09-05T22:02:39.990Z,1.77
2023-09-05T22:05:08.001Z,1.87
2023-09-05T22:07:36.913Z,2.10
2023-09-05T22:10:04.949Z,1.70
2023-09-05T22:12:31.787Z,1.70
2023-09-05T22:14:58.617Z,1.83
2023-09-05T22:17:25.546Z,2.13
2023-09-05T22:19:53.236Z,2.20
2023-09-05T22:22:20.006Z,1.93
2023-09-05T22:24:46.954Z,2.17
2023-09-05T22:27:13.786Z,2.10
2023-09-05T22:29:40.596Z,1.83
2023-09-05T22:32:07.426Z,1.63
2023-09-05T22:34:34.234Z,1.87
2023-09-05T22:37:02.042Z,1.83
2023-09-05T22:39:28.933Z,1.90
2023-09-05T22:41:55.876Z,1.53
2023-09-05T22:44:26.212Z,1.93
2023-09-05T22:46:53.053Z,1.90
2023-09-05T22:49:20.597Z,2.53
2023-09-05T22:51:47.536Z,1.83
2023-09-05T22:54:14.337Z,1.83
2023-09-05T22:56:41.067Z,1.97
2023-09-05T22:59:08.036Z,1.63
2023-09-05T23:01:35.019Z,1.83
2023-09-05T23:04:01.966Z,1.80
2023-09-05T23:06:28.901Z,2.10
2023-09-05T23:08:55.741Z,1.60
2023-09-05T23:11:22.506Z,1.73
2023-09-05T23:13:49.561Z,2.13
2023-09-05T23:16:17.546Z,1.93
2023-09-05T23:18:45.904Z,2.27
2023-09-05T23:21:14.162Z,2.83
2023-09-05T23:23:41.020Z,2.00
2023-09-05T23:26:10.253Z,2.27
2023-09-05T23:28:37.471Z,2.10
2023-09-05T23:31:04.394Z,2.00
2023-09-05T23:33:32.025Z,2.07
2023-09-05T23:35:59.066Z,2.40
2023-09-05T23:38:26.200Z,2.00
2023-09-05T23:40:53.329Z,2.50
2023-09-05T23:43:20.216Z,1.70
2023-09-05T23:45:52.606Z,1.83
2023-09-05T23:48:27.868Z,2.47
2023-09-05T23:50:55.101Z,2.00
2023-09-05T23:53:21.910Z,1.70
2023-09-05T23:55:50.634Z,1.70
2023-09-05T23:58:17.458Z,2.27
